Terminal Aerodrome Forecast
Issued by NWS

Home | Current Version | Previous Version | Text Only | Print | Product List | Glossary On
Versions: 1 2 3 4 5 6 7 8 9 10 11 12 13 14 15 16
000
FTUS45 KRIW 281730
TAFLND
TAF
KLND 281730Z 2818/2918 02012KT 2SM -SN OVC014
      TEMPO 2818/2822 1SM -SN OVC006
     FM290600 VRB06KT 5SM -SN OVC020
     FM291100 VRB06KT P6SM SCT020 BKN040
     FM291600 32008KT P6SM SCT050 BKN080=

USA.gov is the U.S. government's official web portal to all federal, state and local government web resources and services.